createdAt,value
2023-04-25T00:00:33.151Z,7.70
2023-04-25T00:03:02.595Z,7.70
2023-04-25T00:05:30.589Z,7.70
2023-04-25T00:07:59.062Z,7.70
2023-04-25T00:10:26.280Z,7.70
2023-04-25T00:12:53.710Z,7.80
2023-04-25T00:15:20.895Z,7.80
2023-04-25T00:17:48.908Z,7.80
2023-04-25T00:20:16.412Z,7.80
2023-04-25T00:22:43.561Z,7.80
2023-04-25T00:25:10.898Z,7.80
2023-04-25T00:27:39.841Z,7.90
2023-04-25T00:30:07.718Z,7.90
2023-04-25T00:32:35.045Z,7.90
2023-04-25T00:35:03.085Z,7.90
2023-04-25T00:37:30.255Z,7.90
2023-04-25T00:39:59.104Z,7.90
2023-04-25T00:42:26.574Z,8.00
2023-04-25T00:44:54.380Z,8.00
2023-04-25T00:47:22.311Z,8.00
2023-04-25T00:49:49.484Z,8.00
2023-04-25T00:52:16.842Z,8.10
2023-04-25T00:54:44.480Z,8.10
2023-04-25T00:57:12.124Z,8.20
2023-04-25T00:59:39.941Z,8.10
2023-04-25T01:02:08.425Z,8.00
2023-04-25T01:04:35.669Z,8.20
2023-04-25T01:07:03.675Z,8.00
2023-04-25T01:09:32.855Z,8.00
2023-04-25T01:12:01.004Z,7.90
2023-04-25T01:14:28.501Z,7.90
2023-04-25T01:16:56.099Z,7.80
2023-04-25T01:19:24.578Z,7.80
2023-04-25T01:21:52.064Z,7.80
2023-04-25T01:24:20.343Z,7.80
2023-04-25T01:26:50.614Z,7.80
2023-04-25T01:29:21.945Z,7.70
2023-04-25T01:31:49.943Z,7.70
2023-04-25T01:34:17.237Z,7.70
2023-04-25T01:36:44.485Z,7.70
2023-04-25T01:39:11.857Z,7.60
2023-04-25T01:41:39.749Z,7.60
2023-04-25T01:44:07.335Z,7.50
2023-04-25T01:46:35.750Z,7.50
2023-04-25T01:49:03.635Z,7.50
2023-04-25T01:51:32.847Z,7.40
2023-04-25T01:54:01.262Z,7.40
2023-04-25T01:56:34.010Z,7.40
2023-04-25T01:59:02.208Z,7.30
2023-04-25T02:01:47.548Z,7.30
2023-04-25T02:04:24.167Z,7.20
2023-04-25T02:06:52.216Z,7.20
2023-04-25T02:09:19.877Z,7.20
2023-04-25T02:11:53.403Z,7.20
2023-04-25T02:14:23.269Z,7.20
2023-04-25T02:16:58.367Z,7.10
2023-04-25T02:19:26.021Z,7.10
2023-04-25T02:21:53.231Z,7.10
2023-04-25T02:24:20.618Z,7.10
2023-04-25T02:26:47.884Z,7.00
2023-04-25T02:29:16.141Z,7.00
2023-04-25T02:31:43.866Z,7.00
2023-04-25T02:34:11.382Z,7.00
2023-04-25T02:36:39.673Z,7.00
2023-04-25T02:39:06.842Z,7.00
2023-04-25T02:41:34.020Z,7.00
2023-04-25T02:44:01.250Z,7.00
2023-04-25T02:46:38.472Z,7.00
2023-04-25T02:49:07.705Z,7.00
2023-04-25T02:51:35.829Z,7.00
2023-04-25T02:54:03.407Z,7.00
2023-04-25T02:56:33.506Z,7.00
2023-04-25T02:59:01.939Z,7.00
2023-04-25T03:01:30.770Z,7.10
2023-04-25T03:03:58.101Z,7.10
2023-04-25T03:06:26.140Z,7.10
2023-04-25T03:08:53.834Z,7.20
2023-04-25T03:11:21.216Z,7.20
2023-04-25T03:13:49.157Z,7.20
2023-04-25T03:16:17.046Z,7.20
2023-04-25T03:18:44.523Z,7.20
2023-04-25T03:21:12.112Z,7.20
2023-04-25T03:23:39.474Z,7.20
2023-04-25T03:26:08.856Z,7.10
2023-04-25T03:28:36.178Z,7.10
2023-04-25T03:31:03.594Z,7.10
2023-04-25T03:33:31.385Z,7.20
2023-04-25T03:35:58.949Z,7.20
2023-04-25T03:38:26.481Z,7.20
2023-04-25T03:40:54.080Z,7.20
2023-04-25T03:43:25.987Z,7.10
2023-04-25T03:45:59.321Z,7.10
2023-04-25T03:48:27.849Z,7.00
2023-04-25T03:50:55.726Z,7.00
2023-04-25T03:53:23.426Z,7.00
2023-04-25T03:56:25.711Z,6.90
2023-04-25T03:59:01.401Z,7.00
2023-04-25T04:01:30.616Z,6.90
2023-04-25T04:03:59.068Z,6.80
2023-04-25T04:06:27.860Z,6.90
2023-04-25T04:09:03.521Z,6.80
2023-04-25T04:11:33.637Z,6.90
2023-04-25T04:14:00.919Z,6.80
2023-04-25T04:16:28.413Z,6.90
2023-04-25T04:18:55.965Z,6.90
2023-04-25T04:21:23.516Z,6.90
2023-04-25T04:23:51.684Z,6.80
2023-04-25T04:26:19.291Z,6.80
2023-04-25T04:28:55.585Z,6.90
2023-04-25T04:31:39.594Z,6.90
2023-04-25T04:34:07.120Z,6.90
2023-04-25T04:36:35.646Z,6.90
2023-04-25T04:39:04.258Z,6.90
2023-04-25T04:41:43.868Z,7.00
2023-04-25T04:44:33.729Z,7.00
2023-04-25T04:47:15.050Z,7.00
2023-04-25T04:50:02.523Z,7.00
2023-04-25T04:52:59.380Z,7.00
2023-04-25T04:55:38.669Z,6.90
2023-04-25T04:58:24.088Z,6.90
2023-04-25T05:01:20.774Z,6.90
2023-04-25T05:04:02.359Z,6.90
2023-04-25T05:06:49.139Z,7.00
2023-04-25T05:09:39.992Z,7.10
2023-04-25T05:12:14.068Z,7.10
2023-04-25T05:15:00.151Z,7.20
2023-04-25T05:17:52.035Z,7.20
2023-04-25T05:20:51.591Z,7.30
2023-04-25T05:23:57.604Z,7.10
2023-04-25T05:26:45.019Z,7.20
2023-04-25T05:29:24.021Z,7.20
2023-04-25T05:32:14.540Z,7.20
2023-04-25T05:34:42.960Z,7.20
2023-04-25T05:37:19.176Z,7.40
2023-04-25T05:39:55.718Z,7.60
2023-04-25T05:42:34.569Z,7.50
2023-04-25T05:45:09.807Z,7.50
2023-04-25T05:47:51.814Z,7.50
2023-04-25T05:50:39.252Z,7.50
2023-04-25T05:53:33.795Z,7.60
2023-04-25T05:56:03.751Z,7.70
2023-04-25T05:58:31.058Z,7.70
2023-04-25T06:01:00.456Z,7.80
2023-04-25T06:03:28.094Z,8.00
2023-04-25T06:05:58.746Z,8.20
2023-04-25T06:08:27.044Z,8.20
2023-04-25T06:10:54.436Z,8.10
2023-04-25T06:13:21.837Z,8.00
2023-04-25T06:15:49.282Z,7.60
2023-04-25T06:18:17.698Z,7.30
2023-04-25T06:20:45.030Z,7.20
2023-04-25T06:23:12.371Z,6.80
2023-04-25T06:25:58.169Z,6.70
2023-04-25T06:28:26.923Z,6.70
2023-04-25T06:30:54.448Z,6.60
2023-04-25T06:33:22.520Z,6.80
2023-04-25T06:35:50.449Z,6.80
2023-04-25T06:38:21.557Z,6.80
2023-04-25T06:40:52.518Z,6.90
2023-04-25T06:43:20.340Z,7.00
2023-04-25T06:46:06.435Z,7.10
2023-04-25T06:48:40.634Z,7.30
2023-04-25T06:51:08.099Z,7.50
2023-04-25T06:53:37.435Z,7.70
2023-04-25T06:56:07.654Z,7.70
2023-04-25T06:58:48.933Z,7.80
2023-04-25T07:01:31.282Z,7.70
2023-04-25T07:04:00.828Z,7.90
2023-04-25T07:06:30.194Z,8.00
2023-04-25T07:08:57.460Z,8.30
2023-04-25T07:11:25.447Z,8.20
2023-04-25T07:13:52.764Z,8.20
2023-04-25T07:16:20.389Z,8.20
2023-04-25T07:18:48.268Z,8.40
2023-04-25T07:21:15.931Z,8.50
2023-04-25T07:23:45.252Z,8.60
2023-04-25T07:26:16.910Z,8.60
2023-04-25T07:29:04.258Z,8.60
2023-04-25T07:31:31.580Z,8.60
2023-04-25T07:34:01.764Z,8.70
2023-04-25T07:36:29.495Z,8.60
2023-04-25T07:38:56.956Z,8.80
2023-04-25T07:41:24.527Z,9.00
2023-04-25T07:43:52.036Z,9.10
2023-04-25T07:46:20.764Z,9.20
2023-04-25T07:48:49.108Z,9.30
2023-04-25T07:51:16.611Z,9.40
2023-04-25T07:53:44.829Z,9.50
2023-04-25T07:56:15.289Z,9.50
2023-04-25T07:58:45.744Z,9.60
2023-04-25T08:01:15.575Z,9.70
2023-04-25T08:03:59.074Z,9.70
2023-04-25T08:06:49.354Z,9.80
2023-04-25T08:09:22.343Z,9.70
2023-04-25T08:11:49.945Z,9.70
2023-04-25T08:14:21.127Z,9.80
2023-04-25T08:16:49.577Z,10.00
2023-04-25T08:19:17.492Z,10.20
2023-04-25T08:21:46.180Z,10.20
2023-04-25T08:24:17.932Z,10.50
2023-04-25T08:26:45.476Z,10.60
2023-04-25T08:29:17.084Z,10.90
2023-04-25T08:31:45.271Z,11.00
2023-04-25T08:34:14.052Z,11.00
2023-04-25T08:36:48.336Z,11.00
2023-04-25T08:39:39.918Z,10.80
2023-04-25T08:42:29.896Z,11.00
2023-04-25T08:44:58.398Z,10.70
2023-04-25T08:47:33.309Z,10.70
2023-04-25T08:50:02.611Z,10.50
2023-04-25T08:52:44.233Z,10.60
2023-04-25T08:55:13.993Z,10.80
2023-04-25T08:57:45.565Z,10.90
2023-04-25T09:00:14.020Z,10.90
2023-04-25T09:02:45.104Z,10.80
2023-04-25T09:05:15.001Z,10.80
2023-04-25T09:07:42.965Z,11.00
2023-04-25T09:10:10.942Z,11.10
2023-04-25T09:12:39.583Z,11.20
2023-04-25T09:15:20.440Z,11.30
2023-04-25T09:17:58.218Z,11.50
2023-04-25T09:20:31.478Z,11.60
2023-04-25T09:23:04.417Z,11.60
2023-04-25T09:25:40.084Z,12.00
2023-04-25T09:28:09.549Z,12.10
2023-04-25T09:30:38.281Z,12.10
2023-04-25T09:33:11.932Z,12.10
2023-04-25T09:35:44.432Z,12.30
2023-04-25T09:38:19.826Z,12.40
2023-04-25T09:40:56.569Z,12.60
2023-04-25T09:43:36.466Z,12.40
2023-04-25T09:46:08.675Z,12.30
2023-04-25T09:48:38.613Z,12.20
2023-04-25T09:51:11.174Z,12.00
2023-04-25T09:53:41.290Z,12.10
2023-04-25T09:56:23.901Z,12.10
2023-04-25T09:58:54.630Z,12.20
2023-04-25T10:01:24.441Z,12.10
2023-04-25T10:04:10.164Z,11.90
2023-04-25T10:06:50.152Z,11.70
2023-04-25T10:09:21.469Z,11.90
2023-04-25T10:11:49.578Z,11.90
2023-04-25T10:14:17.721Z,12.10
2023-04-25T10:16:46.104Z,12.00
2023-04-25T10:19:14.186Z,12.10
2023-04-25T10:22:06.860Z,12.20
2023-04-25T10:24:36.252Z,12.10
2023-04-25T10:27:03.879Z,12.20
2023-04-25T10:29:31.206Z,12.60
2023-04-25T10:31:58.984Z,12.80
2023-04-25T10:34:42.552Z,13.10
2023-04-25T10:37:11.948Z,13.40
2023-04-25T10:39:41.754Z,13.60
2023-04-25T10:42:09.653Z,13.60
2023-04-25T10:44:40.226Z,13.20
2023-04-25T10:47:09.473Z,12.70
2023-04-25T10:49:38.925Z,11.70
2023-04-25T10:52:16.365Z,10.50
2023-04-25T10:54:55.882Z,9.80
2023-04-25T10:57:41.700Z,9.60
2023-04-25T11:00:17.091Z,9.20
2023-04-25T11:02:54.129Z,9.10
2023-04-25T11:05:43.893Z,9.00
2023-04-25T11:08:19.364Z,9.10
2023-04-25T11:10:50.114Z,9.30
2023-04-25T11:13:17.857Z,9.50
2023-04-25T11:15:45.279Z,9.60
2023-04-25T11:18:17.158Z,9.80
2023-04-25T11:20:45.117Z,9.70
2023-04-25T11:23:12.414Z,9.80
2023-04-25T11:25:39.884Z,10.00
2023-04-25T11:28:07.103Z,10.10
2023-04-25T11:30:34.521Z,10.00
2023-04-25T11:33:03.737Z,9.80
2023-04-25T11:35:31.574Z,9.90
2023-04-25T11:37:58.853Z,9.80
2023-04-25T11:40:26.106Z,9.80
2023-04-25T11:45:40.485Z,9.70
2023-04-25T11:47:39.668Z,9.70
2023-04-25T11:48:07.855Z,9.70
2023-04-25T11:50:35.039Z,9.80
2023-04-25T11:53:02.170Z,9.90
2023-04-25T11:55:31.539Z,10.00
2023-04-25T11:58:01.590Z,10.00
2023-04-25T12:00:29.178Z,9.90
2023-04-25T12:03:03.381Z,9.90
2023-04-25T12:05:34.973Z,9.90
2023-04-25T12:08:16.254Z,9.80
2023-04-25T12:10:45.943Z,9.70
2023-04-25T12:13:39.758Z,9.70
2023-04-25T12:16:07.220Z,9.80
2023-04-25T12:18:37.289Z,9.70
2023-04-25T12:21:05.640Z,9.70
2023-04-25T12:23:33.081Z,9.60
2023-04-25T12:26:00.482Z,9.60
2023-04-25T12:28:32.910Z,9.30
2023-04-25T12:31:08.016Z,9.20
2023-04-25T12:33:37.234Z,9.40
2023-04-25T12:36:09.735Z,9.40
2023-04-25T12:38:42.009Z,9.50
2023-04-25T12:41:09.591Z,9.60
2023-04-25T12:43:36.787Z,9.50
2023-04-25T12:46:04.440Z,9.70
2023-04-25T12:48:32.208Z,9.40
2023-04-25T12:51:00.008Z,9.60
2023-04-25T12:53:27.299Z,9.60
2023-04-25T12:58:23.111Z,9.70
2023-04-25T13:00:50.362Z,9.70
2023-04-25T13:03:17.807Z,9.80
2023-04-25T13:05:45.725Z,9.60
2023-04-25T13:08:12.881Z,9.40
2023-04-25T13:10:40.245Z,8.90
2023-04-25T13:13:07.902Z,8.90
2023-04-25T13:15:35.177Z,8.90
2023-04-25T13:18:02.742Z,8.80
2023-04-25T13:20:30.027Z,8.80
2023-04-25T13:22:59.134Z,8.80
2023-04-25T13:25:27.462Z,8.60
2023-04-25T13:27:54.638Z,8.70
2023-04-25T13:30:22.128Z,8.50
2023-04-25T13:32:49.600Z,8.40
2023-04-25T13:35:18.382Z,8.60
2023-04-25T13:37:46.248Z,8.40
2023-04-25T13:40:13.523Z,8.30
2023-04-25T13:42:41.231Z,8.20
2023-04-25T13:45:09.193Z,8.20
2023-04-25T13:47:36.717Z,8.00
2023-04-25T13:50:06.657Z,8.10
2023-04-25T13:52:34.258Z,7.90
2023-04-25T13:55:03.818Z,7.80
2023-04-25T13:57:35.256Z,7.50
2023-04-25T14:00:10.092Z,7.40
2023-04-25T14:02:37.911Z,7.50
2023-04-25T14:05:06.610Z,7.30
2023-04-25T14:07:36.028Z,7.30
2023-04-25T14:10:05.581Z,7.30
2023-04-25T14:12:34.189Z,7.30
2023-04-25T14:15:01.594Z,7.40
2023-04-25T14:17:28.836Z,7.40
2023-04-25T14:19:56.282Z,7.60
2023-04-25T14:22:23.531Z,7.50
2023-04-25T14:24:50.850Z,7.60
2023-04-25T14:27:18.039Z,7.60
2023-04-25T14:29:45.543Z,7.40
2023-04-25T14:32:13.066Z,7.30
2023-04-25T14:34:41.410Z,7.30
2023-04-25T14:37:08.633Z,7.40
2023-04-25T14:39:35.866Z,7.60
2023-04-25T14:42:03.167Z,7.70
2023-04-25T14:44:30.581Z,7.90
2023-04-25T14:46:57.902Z,8.30
2023-04-25T14:49:25.644Z,8.40
2023-04-25T14:51:52.859Z,8.60
2023-04-25T14:54:20.286Z,8.60
2023-04-25T14:56:47.678Z,8.80
2023-04-25T14:59:15.086Z,9.00
2023-04-25T15:01:42.565Z,9.00
2023-04-25T15:04:09.838Z,9.10
2023-04-25T15:06:37.426Z,9.20
2023-04-25T15:09:04.851Z,9.20
2023-04-25T15:11:32.087Z,9.20
2023-04-25T15:13:59.254Z,9.20
2023-04-25T15:16:26.681Z,9.20
2023-04-25T15:18:53.890Z,9.40
2023-04-25T15:21:21.502Z,9.60
2023-04-25T15:23:49.334Z,9.20
2023-04-25T15:26:17.117Z,9.30
2023-04-25T15:28:44.305Z,9.20
2023-04-25T15:31:12.120Z,9.10
2023-04-25T15:33:39.346Z,9.20
2023-04-25T15:36:07.250Z,9.00
2023-04-25T15:38:34.633Z,9.10
2023-04-25T15:41:02.206Z,9.10
2023-04-25T15:43:29.883Z,8.90
2023-04-25T15:45:57.116Z,8.80
2023-04-25T15:48:24.480Z,8.80
2023-04-25T15:50:51.782Z,8.90
2023-04-25T15:53:19.201Z,9.00
2023-04-25T15:55:46.488Z,8.60
2023-04-25T15:58:13.921Z,8.60
2023-04-25T16:00:41.260Z,8.80
2023-04-25T16:03:09.565Z,8.80
2023-04-25T16:05:37.471Z,8.80
2023-04-25T16:08:05.394Z,8.70
2023-04-25T16:10:33.593Z,8.50
2023-04-25T16:13:00.881Z,8.40
2023-04-25T16:15:28.052Z,8.50
2023-04-25T16:17:55.346Z,8.30
2023-04-25T16:20:23.112Z,8.20
2023-04-25T16:22:50.314Z,8.20
2023-04-25T16:25:17.581Z,8.10
2023-04-25T16:27:45.105Z,8.00
2023-04-25T16:30:12.935Z,7.80
2023-04-25T16:32:41.387Z,7.80
2023-04-25T16:35:10.305Z,7.90
2023-04-25T16:37:37.767Z,8.00
2023-04-25T16:40:09.128Z,8.10
2023-04-25T16:42:36.937Z,7.90
2023-04-25T16:45:05.144Z,7.80
2023-04-25T16:47:32.508Z,7.90
2023-04-25T16:50:01.454Z,7.90
2023-04-25T16:52:28.691Z,7.90
2023-04-25T16:54:56.624Z,8.10
2023-04-25T16:57:24.021Z,8.20
2023-04-25T16:59:51.975Z,8.20
2023-04-25T17:02:19.318Z,8.30
2023-04-25T17:04:46.874Z,8.20
2023-04-25T17:07:14.303Z,8.10
2023-04-25T17:09:41.786Z,8.20
2023-04-25T17:12:09.079Z,8.20
2023-04-25T17:14:38.307Z,8.20
2023-04-25T17:17:05.700Z,8.10
2023-04-25T17:19:32.990Z,8.10
2023-04-25T17:22:00.597Z,8.10
2023-04-25T17:24:27.790Z,8.00
2023-04-25T17:26:56.457Z,8.00
2023-04-25T17:29:24.102Z,8.10
2023-04-25T17:31:51.402Z,8.10
2023-04-25T17:34:18.881Z,8.10
2023-04-25T17:36:46.343Z,8.00
2023-04-25T17:39:17.055Z,8.10
2023-04-25T17:41:44.663Z,8.10
2023-04-25T17:44:12.016Z,8.00
2023-04-25T17:46:39.415Z,8.00
2023-04-25T17:49:06.765Z,8.00
2023-04-25T17:51:34.062Z,7.90
2023-04-25T17:54:01.493Z,7.90
2023-04-25T17:56:29.073Z,7.90
2023-04-25T17:58:56.531Z,7.90
2023-04-25T18:01:23.851Z,8.00
2023-04-25T18:03:52.327Z,7.90
2023-04-25T18:06:19.697Z,7.90
2023-04-25T18:08:47.265Z,8.00
2023-04-25T18:11:14.690Z,7.90
2023-04-25T18:13:42.037Z,7.90
2023-04-25T18:16:09.280Z,7.90
2023-04-25T18:18:36.823Z,8.00
2023-04-25T18:21:05.847Z,8.00
2023-04-25T18:23:34.390Z,8.00
2023-04-25T18:26:02.648Z,7.80
2023-04-25T18:28:30.338Z,7.80
2023-04-25T18:30:58.143Z,7.70
2023-04-25T18:33:25.432Z,7.50
2023-04-25T18:38:34.804Z,7.00
2023-04-25T18:41:26.907Z,7.00
2023-04-25T18:43:56.273Z,7.00
2023-04-25T18:46:23.654Z,7.10
2023-04-25T18:48:52.608Z,6.90
2023-04-25T18:51:23.425Z,6.90
2023-04-25T18:53:50.858Z,6.90
2023-04-25T18:56:21.124Z,6.80
2023-04-25T18:58:50.947Z,6.80
2023-04-25T19:01:18.772Z,6.70
2023-04-25T19:03:54.758Z,6.70
2023-04-25T19:06:28.812Z,6.50
2023-04-25T19:08:57.679Z,6.60
2023-04-25T19:11:25.460Z,6.70
2023-04-25T19:13:55.431Z,6.70
2023-04-25T19:16:23.613Z,6.80
2023-04-25T19:18:52.236Z,6.90
2023-04-25T19:21:19.833Z,6.90
2023-04-25T19:23:47.414Z,6.90
2023-04-25T19:26:14.569Z,6.90
2023-04-25T19:28:44.743Z,6.90
2023-04-25T19:31:13.424Z,6.90
2023-04-25T19:33:41.906Z,6.90
2023-04-25T19:36:09.081Z,6.90
2023-04-25T19:38:36.707Z,6.90
2023-04-25T19:41:03.870Z,6.90
2023-04-25T19:43:31.756Z,7.00
2023-04-25T19:45:59.182Z,7.00
2023-04-25T19:48:26.747Z,7.00
2023-04-25T19:50:54.259Z,7.00
2023-04-25T19:53:21.720Z,7.10
2023-04-25T19:55:49.122Z,7.10
2023-04-25T19:58:16.778Z,7.00
2023-04-25T20:00:43.993Z,7.00
2023-04-25T20:03:12.350Z,7.00
2023-04-25T20:05:39.594Z,7.00
2023-04-25T20:08:07.764Z,7.00
2023-04-25T20:10:35.215Z,7.00
2023-04-25T20:13:02.583Z,7.00
2023-04-25T20:15:29.949Z,6.90
2023-04-25T20:17:57.312Z,7.00
2023-04-25T20:20:24.859Z,7.00
2023-04-25T20:22:52.138Z,6.90
2023-04-25T20:25:19.678Z,6.90
2023-04-25T20:27:46.924Z,6.90
2023-04-25T20:30:15.381Z,6.90
2023-04-25T20:32:42.624Z,6.90
2023-04-25T20:35:10.501Z,6.90
2023-04-25T20:37:37.912Z,6.90
2023-04-25T20:40:07.940Z,6.90
2023-04-25T20:42:36.127Z,6.80
2023-04-25T20:45:07.756Z,6.80
2023-04-25T20:47:35.250Z,6.70
2023-04-25T20:50:06.071Z,6.60
2023-04-25T20:52:33.759Z,6.60
2023-04-25T20:55:01.128Z,6.60
2023-04-25T20:57:29.210Z,6.60
2023-04-25T20:59:58.214Z,6.50
2023-04-25T21:02:25.508Z,6.50
2023-04-25T21:04:53.123Z,6.50
2023-04-25T21:07:20.337Z,6.50
2023-04-25T21:09:48.124Z,6.50
2023-04-25T21:12:15.355Z,6.50
2023-04-25T21:14:42.547Z,6.50
2023-04-25T21:17:11.918Z,6.50
2023-04-25T21:19:39.143Z,6.40
2023-04-25T21:22:07.448Z,6.50
2023-04-25T21:24:34.894Z,6.50
2023-04-25T21:27:02.402Z,6.50
2023-04-25T21:29:29.607Z,6.40
2023-04-25T21:31:56.953Z,6.50
2023-04-25T21:34:24.142Z,6.40
2023-04-25T21:36:51.557Z,6.50
2023-04-25T21:39:19.794Z,6.40
2023-04-25T21:41:48.310Z,6.40
2023-04-25T21:44:15.699Z,6.50
2023-04-25T21:46:43.043Z,6.50
2023-04-25T21:49:10.354Z,6.50
2023-04-25T21:51:37.652Z,6.50
2023-04-25T21:54:05.828Z,6.50
2023-04-25T21:56:33.365Z,6.50
2023-04-25T21:59:00.616Z,6.60
2023-04-25T22:01:28.765Z,6.50
2023-04-25T22:03:56.172Z,6.50
2023-04-25T22:06:23.907Z,6.50
2023-04-25T22:08:51.376Z,6.50
2023-04-25T22:11:18.915Z,6.50
2023-04-25T22:13:46.714Z,6.50
2023-04-25T22:16:13.988Z,6.50
2023-04-25T22:18:42.094Z,6.50
2023-04-25T22:21:10.078Z,6.50
2023-04-25T22:23:37.389Z,6.40
2023-04-25T22:26:05.293Z,6.50
2023-04-25T22:28:33.099Z,6.40
2023-04-25T22:31:00.351Z,6.40
2023-04-25T22:33:27.867Z,6.50
2023-04-25T22:35:55.010Z,6.50
2023-04-25T22:38:22.219Z,6.50
2023-04-25T22:40:49.480Z,6.50
2023-04-25T22:43:16.720Z,6.50
2023-04-25T22:45:43.925Z,6.60
2023-04-25T22:48:11.245Z,6.60
2023-04-25T22:50:40.502Z,6.50
2023-04-25T22:53:09.125Z,6.50
2023-04-25T22:55:37.093Z,6.50
2023-04-25T22:58:04.736Z,6.50
2023-04-25T23:00:34.204Z,6.50
2023-04-25T23:03:03.640Z,6.50
2023-04-25T23:05:32.987Z,6.50
2023-04-25T23:08:00.240Z,6.60
2023-04-25T23:10:30.623Z,6.60
2023-04-25T23:13:00.538Z,6.50
2023-04-25T23:15:28.179Z,6.50
2023-04-25T23:17:55.617Z,6.50
2023-04-25T23:20:23.720Z,6.50
2023-04-25T23:22:51.215Z,6.50
2023-04-25T23:25:19.261Z,6.50
2023-04-25T23:27:46.938Z,6.50
2023-04-25T23:30:15.604Z,6.50
2023-04-25T23:32:42.842Z,6.30
2023-04-25T23:35:10.465Z,6.20
2023-04-25T23:37:39.154Z,6.30
2023-04-25T23:40:08.441Z,6.20
2023-04-25T23:42:37.348Z,6.30
2023-04-25T23:45:06.608Z,6.10
2023-04-25T23:47:34.274Z,6.20
2023-04-25T23:50:02.341Z,6.20
2023-04-25T23:52:29.642Z,6.10
2023-04-25T23:54:56.844Z,6.00
2023-04-25T23:57:24.154Z,5.90
2023-04-25T23:59:51.368Z,6.00
